Time;durP1;ratioP1;P1;durP2;ratioP2;P2;SDS_P1;SDS_P2;PMS_P1;PMS_P2;Temp;Humidity;BMP_temperature;BMP_pressure;BME280_temperature;BME280_humidity;BME280_pressure;Samples;Min_cycle;Max_cycle;Signal;HPM_P1;HPM_P2
2023/07/17 00:02:14;;;;;;;26.17;4.35;;;;;;;;;;5019460;28;20033;-69
2023/07/17 00:04:39;;;;;;;14.60;3.45;;;;;;;;;;5018872;28;20044;-69
2023/07/17 00:07:04;;;;;;;21.33;4.40;;;;;;;;;;5017875;28;20156;-71
2023/07/17 00:09:30;;;;;;;20.80;4.32;;;;;;;;;;5018189;28;22187;-69
2023/07/17 00:11:56;;;;;;;20.00;4.22;;;;;;;;;;5016664;28;20082;-69
2023/07/17 00:14:21;;;;;;;18.38;4.80;;;;;;;;;;5018842;28;20160;-70
2023/07/17 00:16:46;;;;;;;19.70;3.80;;;;;;;;;;5020233;28;20041;-71
2023/07/17 00:19:12;;;;;;;27.63;5.00;;;;;;;;;;5013763;28;20048;-71
2023/07/17 00:21:37;;;;;;;19.50;4.10;;;;;;;;;;5009361;28;20048;-70
2023/07/17 00:24:03;;;;;;;20.85;4.38;;;;;;;;;;5018636;28;20528;-72
2023/07/17 00:26:29;;;;;;;20.25;4.50;;;;;;;;;;5035005;28;20658;-70
2023/07/17 00:28:55;;;;;;;19.48;4.28;;;;;;;;;;5016190;28;20044;-70
2023/07/17 00:31:20;;;;;;;25.52;4.78;;;;;;;;;;5045732;28;20095;-68
2023/07/17 00:33:46;;;;;;;19.17;4.10;;;;;;;;;;5016615;28;20037;-70
2023/07/17 00:36:11;;;;;;;28.95;5.07;;;;;;;;;;5015599;28;20038;-70
2023/07/17 00:38:36;;;;;;;25.98;5.22;;;;;;;;;;5010983;28;20037;-70
2023/07/17 00:41:02;;;;;;;25.30;4.85;;;;;;;;;;5014444;28;20025;-71
2023/07/17 00:43:27;;;;;;;22.10;4.32;;;;;;;;;;5014939;28;20037;-71
2023/07/17 00:45:52;;;;;;;24.35;4.80;;;;;;;;;;5038576;28;20044;-68
2023/07/17 00:48:18;;;;;;;22.02;5.53;;;;;;;;;;5007893;28;20076;-70
2023/07/17 00:50:43;;;;;;;28.70;5.47;;;;;;;;;;4997892;28;20117;-71
2023/07/17 00:53:09;;;;;;;22.48;5.05;;;;;;;;;;4997802;28;20053;-68
2023/07/17 00:55:34;;;;;;;20.95;4.82;;;;;;;;;;5027385;28;20044;-70
2023/07/17 00:58:00;;;;;;;26.38;4.43;;;;;;;;;;5023877;28;20111;-72
2023/07/17 01:00:25;;;;;;;21.40;4.40;;;;;;;;;;5031234;28;20190;-70
2023/07/17 01:02:52;;;;;;;19.35;4.53;;;;;;;;;;5018796;28;20064;-69
2023/07/17 01:05:17;;;;;;;21.52;4.60;;;;;;;;;;5017490;28;20750;-73
2023/07/17 01:07:42;;;;;;;19.80;4.40;;;;;;;;;;5018574;28;20112;-72
2023/07/17 01:10:08;;;;;;;21.55;4.28;;;;;;;;;;5019177;28;20098;-72
2023/07/17 01:12:36;;;;;;;27.35;5.35;;;;;;;;;;5015963;28;20704;-69
2023/07/17 01:15:02;;;;;;;20.85;4.13;;;;;;;;;;5019794;28;20071;-72
2023/07/17 01:17:28;;;;;;;21.40;4.85;;;;;;;;;;5018562;28;20029;-70
2023/07/17 01:19:53;;;;;;;20.95;4.60;;;;;;;;;;5010494;28;20044;-69
2023/07/17 01:22:22;;;;;;;24.10;5.43;;;;;;;;;;5019185;28;20045;-72
2023/07/17 01:24:48;;;;;;;23.00;4.85;;;;;;;;;;5015913;28;22320;-71
2023/07/17 01:27:13;;;;;;;24.30;4.50;;;;;;;;;;5009513;28;20033;-71
2023/07/17 01:29:38;;;;;;;22.08;5.03;;;;;;;;;;5019177;28;20045;-69
2023/07/17 01:32:06;;;;;;;22.70;5.40;;;;;;;;;;5046494;28;20039;-70
2023/07/17 01:34:31;;;;;;;20.52;5.18;;;;;;;;;;5004023;28;20038;-71
2023/07/17 01:36:57;;;;;;;19.73;4.88;;;;;;;;;;5031968;28;20037;-72
2023/07/17 01:39:24;;;;;;;26.83;5.93;;;;;;;;;;5016289;28;20523;-70
2023/07/17 01:41:49;;;;;;;32.35;6.65;;;;;;;;;;5031276;28;20045;-71
2023/07/17 01:44:15;;;;;;;23.83;5.70;;;;;;;;;;5018468;28;20813;-73
2023/07/17 01:46:40;;;;;;;23.13;5.70;;;;;;;;;;5021440;28;20417;-70
2023/07/17 01:49:07;;;;;;;25.90;4.90;;;;;;;;;;5019695;28;20052;-70
2023/07/17 01:51:32;;;;;;;21.95;4.95;;;;;;;;;;5019222;28;20168;-70
2023/07/17 01:53:57;;;;;;;24.42;5.50;;;;;;;;;;5020815;28;20497;-69
2023/07/17 01:56:23;;;;;;;27.75;5.68;;;;;;;;;;5035691;28;20141;-71
2023/07/17 01:58:48;;;;;;;19.15;5.05;;;;;;;;;;5052296;28;20086;-71
2023/07/17 02:01:13;;;;;;;23.88;6.10;;;;;;;;;;5020691;28;20508;-70
2023/07/17 02:03:38;;;;;;;27.15;6.18;;;;;;;;;;5020984;28;20243;-69
2023/07/17 02:06:04;;;;;;;24.92;5.55;;;;;;;;;;5001606;28;20033;-69
2023/07/17 02:08:30;;;;;;;26.13;5.72;;;;;;;;;;5001667;28;20042;-71
2023/07/17 02:10:55;;;;;;;25.60;6.13;;;;;;;;;;5015242;28;20056;-68
2023/07/17 02:13:21;;;;;;;22.77;5.55;;;;;;;;;;5021735;28;20045;-69
2023/07/17 02:15:46;;;;;;;18.23;5.80;;;;;;;;;;5019235;28;20123;-69
2023/07/17 02:18:11;;;;;;;20.30;5.55;;;;;;;;;;5023505;28;21177;-70
2023/07/17 02:20:36;;;;;;;23.30;5.82;;;;;;;;;;5018360;28;20045;-73
2023/07/17 02:23:04;;;;;;;25.08;6.30;;;;;;;;;;5021446;28;20098;-70
2023/07/17 02:25:29;;;;;;;25.13;6.07;;;;;;;;;;4999378;28;20044;-70
2023/07/17 02:27:55;;;;;;;28.60;7.15;;;;;;;;;;5000946;28;22233;-70
2023/07/17 02:30:20;;;;;;;25.70;6.50;;;;;;;;;;4996329;28;20037;-72
2023/07/17 02:32:45;;;;;;;21.77;5.88;;;;;;;;;;4999576;28;20124;-73
2023/07/17 02:35:11;;;;;;;27.02;6.05;;;;;;;;;;5016599;28;20047;-71
2023/07/17 02:37:36;;;;;;;25.48;6.68;;;;;;;;;;5018366;28;20060;-70
2023/07/17 02:40:05;;;;;;;28.52;6.00;;;;;;;;;;5017821;28;20126;-68
2023/07/17 02:42:30;;;;;;;23.13;5.82;;;;;;;;;;5013558;28;20245;-71
2023/07/17 02:44:55;;;;;;;22.40;6.68;;;;;;;;;;5018109;28;20788;-71
2023/07/17 02:47:21;;;;;;;24.95;7.03;;;;;;;;;;5016431;28;20085;-71
2023/07/17 02:49:48;;;;;;;24.23;5.85;;;;;;;;;;5019710;28;20037;-70
2023/07/17 02:52:14;;;;;;;23.20;6.47;;;;;;;;;;5019719;28;20118;-70
2023/07/17 02:54:40;;;;;;;27.75;6.30;;;;;;;;;;5019654;28;20099;-71
2023/07/17 02:57:05;;;;;;;25.52;6.63;;;;;;;;;;5018995;28;20036;-71
2023/07/17 02:59:30;;;;;;;26.50;6.93;;;;;;;;;;5019756;28;20075;-70
2023/07/17 03:01:56;;;;;;;22.67;6.80;;;;;;;;;;5050843;28;20121;-68
2023/07/17 03:04:21;;;;;;;26.52;6.97;;;;;;;;;;5014852;28;20159;-71
2023/07/17 03:06:48;;;;;;;24.70;6.90;;;;;;;;;;5019652;28;20064;-71
2023/07/17 03:09:13;;;;;;;23.70;6.38;;;;;;;;;;5020329;28;20040;-70
2023/07/17 03:11:38;;;;;;;26.85;7.65;;;;;;;;;;5017618;28;20402;-70
2023/07/17 03:14:04;;;;;;;28.55;7.05;;;;;;;;;;5022002;28;20116;-71
2023/07/17 03:16:29;;;;;;;18.90;5.90;;;;;;;;;;5019461;28;20120;-70
2023/07/17 03:18:55;;;;;;;22.52;6.53;;;;;;;;;;5020891;28;20048;-71
2023/07/17 03:21:22;;;;;;;30.83;7.35;;;;;;;;;;5018759;28;20034;-72
2023/07/17 03:23:48;;;;;;;26.15;6.93;;;;;;;;;;5018366;28;20828;-70
2023/07/17 03:26:13;;;;;;;19.88;7.00;;;;;;;;;;5000995;28;20045;-72
2023/07/17 03:28:38;;;;;;;21.30;7.25;;;;;;;;;;4998573;28;20093;-72
2023/07/17 03:31:04;;;;;;;28.17;7.40;;;;;;;;;;5000503;28;20037;-72
2023/07/17 03:33:30;;;;;;;22.88;7.35;;;;;;;;;;4998674;28;20041;-71
2023/07/17 03:35:58;;;;;;;28.67;7.45;;;;;;;;;;5014118;28;20044;-73
2023/07/17 03:38:23;;;;;;;23.35;7.68;;;;;;;;;;5017322;28;20033;-69
2023/07/17 03:40:48;;;;;;;15.27;5.72;;;;;;;;;;5035073;28;20115;-70
2023/07/17 03:43:13;;;;;;;26.17;6.03;;;;;;;;;;5019407;28;20578;-70
2023/07/17 03:45:39;;;;;;;22.08;6.03;;;;;;;;;;5018013;28;20112;-70
2023/07/17 03:48:04;;;;;;;22.70;5.93;;;;;;;;;;5017896;28;20033;-71
2023/07/17 03:50:32;;;;;;;17.73;6.28;;;;;;;;;;5007995;28;20056;-71
2023/07/17 03:52:57;;;;;;;19.88;6.82;;;;;;;;;;4998847;28;20988;-72
2023/07/17 03:55:23;;;;;;;19.75;5.90;;;;;;;;;;5026299;28;20045;-72
2023/07/17 03:57:48;;;;;;;26.98;6.03;;;;;;;;;;4993528;28;20487;-72
2023/07/17 04:00:14;;;;;;;17.67;5.90;;;;;;;;;;4996166;28;20053;-69
2023/07/17 04:02:42;;;;;;;19.75;5.95;;;;;;;;;;4996361;28;20057;-70
2023/07/17 04:05:10;;;;;;;22.40;6.32;;;;;;;;;;5015843;28;20576;-70
2023/07/17 04:07:35;;;;;;;28.60;6.95;;;;;;;;;;5017617;28;20439;-70
2023/07/17 04:10:00;;;;;;;23.75;7.07;;;;;;;;;;5018881;28;20043;-69
2023/07/17 04:12:26;;;;;;;21.80;6.10;;;;;;;;;;5018660;28;20032;-70
2023/07/17 04:14:51;;;;;;;22.48;7.30;;;;;;;;;;5015380;28;20056;-69
2023/07/17 04:17:17;;;;;;;22.38;6.50;;;;;;;;;;5015414;28;20218;-70
2023/07/17 04:19:42;;;;;;;25.95;7.18;;;;;;;;;;5029015;28;20041;-69
2023/07/17 04:22:09;;;;;;;20.80;6.85;;;;;;;;;;5017818;28;20041;-70
2023/07/17 04:24:35;;;;;;;21.58;6.80;;;;;;;;;;5033100;28;20033;-71
2023/07/17 04:27:00;;;;;;;22.80;6.30;;;;;;;;;;5019235;28;20037;-71
2023/07/17 04:29:25;;;;;;;27.17;6.82;;;;;;;;;;5018655;28;20068;-69
2023/07/17 04:31:50;;;;;;;19.00;6.50;;;;;;;;;;5012532;28;20080;-69
2023/07/17 04:34:16;;;;;;;20.67;6.22;;;;;;;;;;5017039;28;20029;-72
2023/07/17 04:36:41;;;;;;;19.23;6.13;;;;;;;;;;5015421;28;20033;-71
2023/07/17 04:39:06;;;;;;;16.17;5.97;;;;;;;;;;5018948;28;20033;-70
2023/07/17 04:41:32;;;;;;;21.90;6.38;;;;;;;;;;5048278;28;20143;-70
2023/07/17 04:43:57;;;;;;;23.42;6.15;;;;;;;;;;5017757;28;20042;-70
2023/07/17 04:46:23;;;;;;;26.10;6.60;;;;;;;;;;5018872;28;20033;-70
2023/07/17 04:48:48;;;;;;;20.58;6.30;;;;;;;;;;5019841;28;20076;-71
2023/07/17 04:51:14;;;;;;;25.55;7.13;;;;;;;;;;5016783;28;20166;-70
2023/07/17 04:53:39;;;;;;;15.93;6.07;;;;;;;;;;5029377;28;20171;-71
2023/07/17 04:56:04;;;;;;;19.88;6.40;;;;;;;;;;5016575;28;20037;-72
2023/07/17 04:58:32;;;;;;;21.08;7.22;;;;;;;;;;5014370;28;20033;-71
2023/07/17 05:00:58;;;;;;;23.45;6.45;;;;;;;;;;5016289;28;20091;-70
2023/07/17 05:03:23;;;;;;;20.08;6.35;;;;;;;;;;4993728;28;20133;-70
2023/07/17 05:05:50;;;;;;;20.92;6.82;;;;;;;;;;5026717;28;20039;-70
2023/07/17 05:08:15;;;;;;;22.25;5.85;;;;;;;;;;4996513;28;20041;-69
2023/07/17 05:10:43;;;;;;;20.02;5.72;;;;;;;;;;4998294;28;20030;-66
2023/07/17 05:13:08;;;;;;;17.40;5.72;;;;;;;;;;5000549;28;20046;-70
2023/07/17 05:15:33;;;;;;;22.92;6.28;;;;;;;;;;5031828;28;20049;-76
2023/07/17 05:17:59;;;;;;;25.55;6.00;;;;;;;;;;5003017;28;22367;-70
2023/07/17 05:20:24;;;;;;;18.98;6.05;;;;;;;;;;5003007;28;20038;-67
2023/07/17 05:22:49;;;;;;;16.80;5.80;;;;;;;;;;5004724;28;20050;-69
2023/07/17 05:25:17;;;;;;;19.55;6.10;;;;;;;;;;5000242;28;20044;-69
2023/07/17 05:27:46;;;;;;;26.73;6.30;;;;;;;;;;5000163;28;20033;-70
2023/07/17 05:30:12;;;;;;;20.02;5.35;;;;;;;;;;5017301;28;20040;-72
2023/07/17 05:32:39;;;;;;;16.67;5.22;;;;;;;;;;5014477;28;20049;-72
2023/07/17 05:35:05;;;;;;;15.95;4.70;;;;;;;;;;4996338;28;20120;-67
2023/07/17 05:37:30;;;;;;;19.27;5.20;;;;;;;;;;4998046;28;20042;-73
2023/07/17 05:39:55;;;;;;;19.00;4.80;;;;;;;;;;4995589;28;20596;-70
2023/07/17 05:42:20;;;;;;;22.80;5.28;;;;;;;;;;4994188;28;20041;-70
2023/07/17 05:44:46;;;;;;;23.35;4.93;;;;;;;;;;4994773;28;20069;-70
2023/07/17 05:47:11;;;;;;;17.27;4.57;;;;;;;;;;5010620;28;20037;-71
2023/07/17 05:49:36;;;;;;;13.23;4.63;;;;;;;;;;5019753;28;20132;-71
2023/07/17 05:52:02;;;;;;;17.95;4.15;;;;;;;;;;5049151;28;20539;-71
2023/07/17 05:54:27;;;;;;;20.73;5.10;;;;;;;;;;5021917;28;20032;-69
2023/07/17 05:56:52;;;;;;;19.27;4.28;;;;;;;;;;5032583;28;20131;-69
2023/07/17 05:59:18;;;;;;;32.47;5.30;;;;;;;;;;5018657;28;20037;-69
2023/07/17 06:01:48;;;;;;;14.45;4.38;;;;;;;;;;5014937;28;20055;-71
2023/07/17 06:04:15;;;;;;;22.55;4.63;;;;;;;;;;5016604;28;20079;-70
2023/07/17 06:06:41;;;;;;;25.40;4.90;;;;;;;;;;5017482;28;20021;-70
2023/07/17 06:09:08;;;;;;;14.52;4.07;;;;;;;;;;5019967;28;20533;-71
2023/07/17 06:11:34;;;;;;;20.38;4.10;;;;;;;;;;5017612;28;20116;-72
2023/07/17 06:14:00;;;;;;;13.45;3.88;;;;;;;;;;5015080;28;20431;-70
2023/07/17 06:16:25;;;;;;;16.10;4.07;;;;;;;;;;5017148;28;20037;-69
2023/07/17 06:18:50;;;;;;;18.48;4.15;;;;;;;;;;5019911;28;20859;-71
2023/07/17 06:21:17;;;;;;;17.85;4.07;;;;;;;;;;4997485;28;20410;-70
2023/07/17 06:23:43;;;;;;;19.95;4.68;;;;;;;;;;5027675;28;20073;-72
2023/07/17 06:26:08;;;;;;;19.52;4.47;;;;;;;;;;4997999;28;20036;-74
2023/07/17 06:28:36;;;;;;;17.02;4.43;;;;;;;;;;5019404;28;22487;-72
2023/07/17 06:31:01;;;;;;;14.75;4.07;;;;;;;;;;5013899;28;20707;-72
2023/07/17 06:33:27;;;;;;;18.92;4.72;;;;;;;;;;5019342;28;20044;-72
2023/07/17 06:35:55;;;;;;;17.05;4.70;;;;;;;;;;5017507;28;20363;-75
2023/07/17 06:38:20;;;;;;;24.75;4.63;;;;;;;;;;5014657;28;20037;-72
2023/07/17 06:40:51;;;;;;;13.95;4.32;;;;;;;;;;5018263;28;20072;-74
2023/07/17 06:43:19;;;;;;;11.63;3.37;;;;;;;;;;5017490;28;20118;-72
2023/07/17 06:45:44;;;;;;;21.83;4.03;;;;;;;;;;4999729;28;20847;-73
2023/07/17 06:48:09;;;;;;;15.40;3.65;;;;;;;;;;4995402;28;20041;-74
2023/07/17 06:50:34;;;;;;;19.52;3.92;;;;;;;;;;4997751;28;20036;-71
2023/07/17 06:53:00;;;;;;;14.35;3.40;;;;;;;;;;4998314;28;20053;-73
2023/07/17 06:55:25;;;;;;;23.65;4.50;;;;;;;;;;5014689;28;20037;-71
2023/07/17 06:57:50;;;;;;;19.15;4.07;;;;;;;;;;4997796;28;20124;-73
2023/07/17 07:00:16;;;;;;;18.48;3.95;;;;;;;;;;5030096;28;20041;-72
2023/07/17 07:02:43;;;;;;;25.98;4.55;;;;;;;;;;4998209;28;20051;-71
2023/07/17 07:05:09;;;;;;;16.13;4.35;;;;;;;;;;5008882;28;20033;-73
2023/07/17 07:07:34;;;;;;;21.52;3.75;;;;;;;;;;5019352;28;20107;-69
2023/07/17 07:09:59;;;;;;;21.13;4.00;;;;;;;;;;5016211;28;20525;-73
2023/07/17 07:12:24;;;;;;;16.38;3.97;;;;;;;;;;5015330;28;20043;-73
2023/07/17 07:14:50;;;;;;;16.92;4.22;;;;;;;;;;5049630;28;20045;-74
2023/07/17 07:17:15;;;;;;;15.02;3.83;;;;;;;;;;5014960;28;20599;-73
2023/07/17 07:19:40;;;;;;;21.88;3.78;;;;;;;;;;5018261;28;20075;-74
2023/07/17 07:22:06;;;;;;;21.67;4.00;;;;;;;;;;5017202;28;20084;-73
2023/07/17 07:24:34;;;;;;;19.45;4.03;;;;;;;;;;5020420;28;20744;-75
2023/07/17 07:27:02;;;;;;;17.38;3.95;;;;;;;;;;5011859;28;20160;-72
2023/07/17 07:29:27;;;;;;;19.40;3.75;;;;;;;;;;5014287;28;20051;-68
2023/07/17 07:31:52;;;;;;;16.30;3.92;;;;;;;;;;5008997;28;20510;-70
2023/07/17 07:34:18;;;;;;;15.63;4.00;;;;;;;;;;5012747;28;22456;-69
2023/07/17 07:36:43;;;;;;;18.17;3.97;;;;;;;;;;5012684;28;20029;-70
2023/07/17 07:39:08;;;;;;;18.60;4.00;;;;;;;;;;5011416;28;20040;-71
2023/07/17 07:41:37;;;;;;;19.48;4.07;;;;;;;;;;4993473;28;20030;-71
2023/07/17 07:44:02;;;;;;;17.30;4.07;;;;;;;;;;4995160;28;20052;-65
2023/07/17 07:46:28;;;;;;;15.23;3.78;;;;;;;;;;4989176;28;20049;-65
2023/07/17 07:48:53;;;;;;;25.30;4.03;;;;;;;;;;5027739;28;20033;-64
2023/07/17 07:51:19;;;;;;;17.08;3.50;;;;;;;;;;5012454;28;20041;-67
2023/07/17 07:53:44;;;;;;;18.92;3.42;;;;;;;;;;5017009;28;20037;-66
2023/07/17 07:56:09;;;;;;;20.83;4.00;;;;;;;;;;5013594;28;20296;-66
2023/07/17 07:58:35;;;;;;;21.05;3.85;;;;;;;;;;5016302;28;20121;-67
2023/07/17 08:01:02;;;;;;;24.77;4.10;;;;;;;;;;5015594;28;20040;-65
2023/07/17 08:03:27;;;;;;;20.20;3.95;;;;;;;;;;5015545;28;20075;-67
2023/07/17 08:05:54;;;;;;;18.42;3.85;;;;;;;;;;5030319;28;20513;-66
2023/07/17 08:08:19;;;;;;;20.63;4.53;;;;;;;;;;5016206;28;20413;-65
2023/07/17 08:10:44;;;;;;;14.60;3.75;;;;;;;;;;5015099;28;20041;-65
2023/07/17 08:13:10;;;;;;;21.65;4.60;;;;;;;;;;5017342;28;20044;-65
2023/07/17 08:15:35;;;;;;;16.05;3.67;;;;;;;;;;5031375;28;20130;-63
2023/07/17 08:18:06;;;;;;;17.77;3.63;;;;;;;;;;5016581;28;20132;-66
2023/07/17 08:20:31;;;;;;;20.50;3.97;;;;;;;;;;5015570;28;22405;-65
2023/07/17 08:22:56;;;;;;;22.02;4.35;;;;;;;;;;5015753;28;20386;-66
2023/07/17 08:25:22;;;;;;;20.40;3.83;;;;;;;;;;5015420;28;20060;-65
2023/07/17 08:27:51;;;;;;;22.08;3.97;;;;;;;;;;5016283;28;20134;-69
2023/07/17 08:30:16;;;;;;;21.67;4.35;;;;;;;;;;5047837;28;20037;-66
2023/07/17 08:32:41;;;;;;;120.65;12.05;;;;;;;;;;5015217;28;20060;-66
2023/07/17 08:35:10;;;;;;;21.60;4.03;;;;;;;;;;5015911;28;20048;-67
2023/07/17 08:37:35;;;;;;;12.82;3.38;;;;;;;;;;5014388;28;20211;-65
2023/07/17 08:40:00;;;;;;;22.88;4.00;;;;;;;;;;5017235;28;20041;-63
2023/07/17 08:42:26;;;;;;;18.45;4.40;;;;;;;;;;5015702;28;20049;-64
2023/07/17 08:44:55;;;;;;;16.52;4.05;;;;;;;;;;5045316;28;20033;-67
2023/07/17 08:47:21;;;;;;;25.10;3.90;;;;;;;;;;5003909;28;20038;-64
2023/07/17 08:49:47;;;;;;;17.15;3.53;;;;;;;;;;5001709;28;20033;-66
2023/07/17 08:52:15;;;;;;;15.90;4.03;;;;;;;;;;5017785;28;20033;-65
2023/07/17 08:54:40;;;;;;;21.17;4.05;;;;;;;;;;5016766;28;20102;-65
2023/07/17 08:57:06;;;;;;;26.77;4.10;;;;;;;;;;5019156;28;20041;-65
2023/07/17 08:59:34;;;;;;;21.77;3.53;;;;;;;;;;5020461;28;20470;-65
2023/07/17 09:02:00;;;;;;;22.95;3.78;;;;;;;;;;5018954;28;20470;-68
2023/07/17 09:04:29;;;;;;;21.55;4.18;;;;;;;;;;5018419;28;20856;-69
2023/07/17 09:06:54;;;;;;;18.27;3.63;;;;;;;;;;5020890;28;20028;-67
2023/07/17 09:09:20;;;;;;;16.83;4.00;;;;;;;;;;5019536;28;20037;-66
2023/07/17 09:11:45;;;;;;;15.98;3.63;;;;;;;;;;5020096;28;20029;-68
2023/07/17 09:14:10;;;;;;;16.35;3.58;;;;;;;;;;5019171;28;20049;-67
2023/07/17 09:16:38;;;;;;;23.23;5.70;;;;;;;;;;5017957;28;20073;-67
2023/07/17 09:19:03;;;;;;;21.13;4.43;;;;;;;;;;5018474;28;20197;-67
2023/07/17 09:21:28;;;;;;;18.60;3.72;;;;;;;;;;5031728;28;20742;-66
2023/07/17 09:23:55;;;;;;;15.85;3.63;;;;;;;;;;5020664;28;20048;-67
2023/07/17 09:26:21;;;;;;;37.00;4.07;;;;;;;;;;5019543;28;20112;-66
2023/07/17 09:28:51;;;;;;;24.00;4.20;;;;;;;;;;5017955;28;20086;-67
2023/07/17 09:31:24;;;;;;;33.08;4.55;;;;;;;;;;5017596;28;20123;-65
2023/07/17 09:33:53;;;;;;;27.63;4.15;;;;;;;;;;5018216;28;20036;-67
2023/07/17 09:36:18;;;;;;;20.05;2.85;;;;;;;;;;5016998;28;20069;-65
2023/07/17 09:38:43;;;;;;;17.65;3.05;;;;;;;;;;5049327;28;20487;-67
2023/07/17 09:41:19;;;;;;;16.48;3.45;;;;;;;;;;5017341;28;20789;-67
2023/07/17 09:43:51;;;;;;;16.88;3.17;;;;;;;;;;5015848;28;20129;-67
2023/07/17 09:46:16;;;;;;;24.00;3.10;;;;;;;;;;5016688;28;20052;-67
2023/07/17 09:48:42;;;;;;;18.10;3.17;;;;;;;;;;5025579;28;20033;-66
2023/07/17 09:51:07;;;;;;;19.38;3.22;;;;;;;;;;4998247;28;21890;-65
2023/07/17 09:53:33;;;;;;;16.00;3.40;;;;;;;;;;5000243;28;20045;-64
2023/07/17 09:55:58;;;;;;;20.80;3.42;;;;;;;;;;4995976;28;20176;-66
2023/07/17 09:58:24;;;;;;;17.50;3.25;;;;;;;;;;5001983;28;20048;-65
2023/07/17 10:00:50;;;;;;;18.17;3.70;;;;;;;;;;5019554;28;20383;-65
2023/07/17 10:03:21;;;;;;;24.63;4.82;;;;;;;;;;5018675;28;20044;-65
2023/07/17 10:05:46;;;;;;;34.85;5.72;;;;;;;;;;4993379;28;20041;-65
2023/07/17 10:08:13;;;;;;;24.58;4.75;;;;;;;;;;5006758;28;20036;-65
2023/07/17 10:10:39;;;;;;;21.77;5.13;;;;;;;;;;5020008;28;20033;-66
2023/07/17 10:13:07;;;;;;;21.08;4.63;;;;;;;;;;5016930;28;20045;-66
2023/07/17 10:15:33;;;;;;;14.00;4.18;;;;;;;;;;5016075;28;20092;-66
2023/07/17 10:17:58;;;;;;;17.13;4.30;;;;;;;;;;5018491;28;20498;-65
2023/07/17 10:20:24;;;;;;;17.88;4.10;;;;;;;;;;5017702;28;20040;-66
2023/07/17 10:22:50;;;;;;;19.15;4.38;;;;;;;;;;5018299;28;20442;-66
2023/07/17 10:25:18;;;;;;;11.57;3.17;;;;;;;;;;5031149;28;23183;-66
2023/07/17 10:27:44;;;;;;;13.20;3.58;;;;;;;;;;5017075;28;20132;-67
2023/07/17 10:30:27;;;;;;;11.15;3.50;;;;;;;;;;5017019;28;20808;-64
2023/07/17 10:33:12;;;;;;;12.57;3.60;;;;;;;;;;5017412;28;20798;-65
2023/07/17 10:35:46;;;;;;;11.10;3.55;;;;;;;;;;5018783;28;20187;-64
2023/07/17 10:38:12;;;;;;;11.98;3.42;;;;;;;;;;5015261;28;20037;-63
2023/07/17 10:40:38;;;;;;;12.35;3.67;;;;;;;;;;5016934;28;20040;-66
2023/07/17 10:43:10;;;;;;;12.70;3.42;;;;;;;;;;5016505;28;20048;-67
2023/07/17 10:45:38;;;;;;;13.57;3.67;;;;;;;;;;5048333;28;21384;-66
2023/07/17 10:48:05;;;;;;;12.52;3.78;;;;;;;;;;5012810;28;20037;-65
2023/07/17 10:50:30;;;;;;;15.88;3.70;;;;;;;;;;5017664;28;20036;-66
2023/07/17 10:53:05;;;;;;;17.58;3.80;;;;;;;;;;5018882;28;20584;-64
2023/07/17 10:55:32;;;;;;;19.75;3.63;;;;;;;;;;4996691;28;20429;-65
2023/07/17 10:58:01;;;;;;;11.90;3.67;;;;;;;;;;5018598;28;20040;-65
2023/07/17 11:00:26;;;;;;;11.40;3.17;;;;;;;;;;5000301;28;20053;-63
2023/07/17 11:02:57;;;;;;;11.93;3.15;;;;;;;;;;4996003;28;20080;-66
2023/07/17 11:05:22;;;;;;;11.55;3.42;;;;;;;;;;5031505;28;20621;-66
2023/07/17 11:07:48;;;;;;;17.10;3.30;;;;;;;;;;4998034;28;20053;-65
2023/07/17 11:10:16;;;;;;;13.02;3.05;;;;;;;;;;4999408;28;20175;-67
2023/07/17 11:12:42;;;;;;;15.15;3.70;;;;;;;;;;4996484;28;20157;-65
2023/07/17 11:15:19;;;;;;;12.18;3.38;;;;;;;;;;4998835;28;21083;-66
2023/07/17 11:17:45;;;;;;;14.43;3.67;;;;;;;;;;4998913;28;20077;-67
2023/07/17 11:20:11;;;;;;;16.02;3.30;;;;;;;;;;4980977;28;20034;-66
2023/07/17 11:22:40;;;;;;;10.40;3.15;;;;;;;;;;4997991;28;20096;-66
2023/07/17 11:25:10;;;;;;;20.58;3.85;;;;;;;;;;4997541;28;20042;-67
2023/07/17 11:27:36;;;;;;;11.55;3.25;;;;;;;;;;4998571;28;20061;-65
2023/07/17 11:30:02;;;;;;;16.60;3.65;;;;;;;;;;5000023;28;20033;-65
2023/07/17 11:32:31;;;;;;;11.43;3.35;;;;;;;;;;5019591;28;20044;-66
2023/07/17 11:34:58;;;;;;;36.63;4.85;;;;;;;;;;5001782;28;20037;-65
2023/07/17 11:37:31;;;;;;;20.13;4.20;;;;;;;;;;4997368;28;20057;-69
2023/07/17 11:39:56;;;;;;;15.38;3.63;;;;;;;;;;5016304;28;20033;-64
2023/07/17 11:42:21;;;;;;;20.00;3.88;;;;;;;;;;5018956;28;20052;-64
2023/07/17 11:44:56;;;;;;;17.27;3.60;;;;;;;;;;5009014;28;20034;-65
2023/07/17 11:47:21;;;;;;;19.20;4.10;;;;;;;;;;4993440;28;20703;-68
2023/07/17 11:49:52;;;;;;;16.70;3.88;;;;;;;;;;5004690;28;20036;-66
2023/07/17 11:52:18;;;;;;;20.17;3.92;;;;;;;;;;5016891;28;20048;-65
2023/07/17 11:54:46;;;;;;;14.93;3.80;;;;;;;;;;5014951;28;20117;-67
2023/07/17 11:57:12;;;;;;;16.10;3.50;;;;;;;;;;5011350;28;20037;-64
2023/07/17 11:59:37;;;;;;;24.52;4.30;;;;;;;;;;5048573;28;20039;-65
2023/07/17 12:02:03;;;;;;;20.13;4.78;;;;;;;;;;5014595;28;20944;-64
2023/07/17 12:04:32;;;;;;;16.33;4.20;;;;;;;;;;5014871;28;20053;-65
2023/07/17 12:06:58;;;;;;;23.48;4.28;;;;;;;;;;5010676;28;20033;-64
2023/07/17 12:09:23;;;;;;;18.77;4.05;;;;;;;;;;5015149;28;20041;-65
2023/07/17 12:11:51;;;;;;;23.50;4.55;;;;;;;;;;5013674;28;20040;-64
2023/07/17 12:14:17;;;;;;;21.73;4.13;;;;;;;;;;5015963;28;20705;-66
2023/07/17 12:16:43;;;;;;;24.63;4.07;;;;;;;;;;5046274;28;20029;-64
2023/07/17 12:19:08;;;;;;;27.45;4.45;;;;;;;;;;5006834;28;20410;-64
2023/07/17 12:21:36;;;;;;;27.88;4.93;;;;;;;;;;4995925;28;20080;-64
2023/07/17 12:24:01;;;;;;;32.70;5.00;;;;;;;;;;5012183;28;20632;-67
2023/07/17 12:26:27;;;;;;;20.20;3.90;;;;;;;;;;4994842;28;20038;-63
2023/07/17 12:28:54;;;;;;;14.55;3.45;;;;;;;;;;4991298;28;20036;-66
2023/07/17 12:31:19;;;;;;;20.05;4.00;;;;;;;;;;5015810;28;20087;-66
2023/07/17 12:33:45;;;;;;;22.85;4.00;;;;;;;;;;5016229;28;20044;-66
2023/07/17 12:36:10;;;;;;;24.75;4.45;;;;;;;;;;5046431;28;20041;-66
2023/07/17 12:38:35;;;;;;;19.90;4.43;;;;;;;;;;5015007;28;20043;-65
2023/07/17 12:41:01;;;;;;;19.63;4.20;;;;;;;;;;5013225;28;20044;-65
2023/07/17 12:43:28;;;;;;;20.90;4.22;;;;;;;;;;5015249;28;20045;-64
2023/07/17 12:45:54;;;;;;;20.35;3.85;;;;;;;;;;5015774;28;22391;-66
2023/07/17 12:48:19;;;;;;;29.70;4.25;;;;;;;;;;5014208;28;20029;-64
2023/07/17 12:50:44;;;;;;;22.75;4.22;;;;;;;;;;5017076;28;20812;-66
2023/07/17 12:53:11;;;;;;;20.02;4.20;;;;;;;;;;5016278;28;20029;-65
2023/07/17 12:55:38;;;;;;;17.30;4.15;;;;;;;;;;5014114;28;20033;-68
2023/07/17 12:58:03;;;;;;;24.27;3.95;;;;;;;;;;5013660;28;20033;-69
2023/07/17 13:00:28;;;;;;;24.42;4.88;;;;;;;;;;5010307;28;20135;-73
2023/07/17 13:02:54;;;;;;;17.15;4.05;;;;;;;;;;5011496;28;20948;-75
2023/07/17 13:05:19;;;;;;;22.20;4.07;;;;;;;;;;5006119;28;20481;-70
2023/07/17 13:07:47;;;;;;;22.38;4.95;;;;;;;;;;5017017;28;21039;-68
2023/07/17 13:10:12;;;;;;;25.70;5.75;;;;;;;;;;5015069;28;20044;-71
2023/07/17 13:12:37;;;;;;;25.67;4.88;;;;;;;;;;5009680;28;20033;-73
2023/07/17 13:15:03;;;;;;;26.23;4.25;;;;;;;;;;4997114;28;20056;-72
2023/07/17 13:17:28;;;;;;;16.02;3.88;;;;;;;;;;4984590;28;20518;-73
2023/07/17 13:19:54;;;;;;;20.52;4.18;;;;;;;;;;4995062;28;20057;-70
2023/07/17 13:22:21;;;;;;;21.73;4.38;;;;;;;;;;4995441;28;20787;-74
2023/07/17 13:24:49;;;;;;;20.63;4.93;;;;;;;;;;4993066;28;20033;-71
2023/07/17 13:27:15;;;;;;;21.60;4.20;;;;;;;;;;4992815;28;20140;-72
2023/07/17 13:29:41;;;;;;;22.63;4.43;;;;;;;;;;4995861;28;20029;-70
2023/07/17 13:32:08;;;;;;;22.80;4.60;;;;;;;;;;5003879;28;20064;-69
2023/07/17 13:34:34;;;;;;;21.13;4.95;;;;;;;;;;5016080;28;20040;-68
2023/07/17 13:36:59;;;;;;;23.27;4.90;;;;;;;;;;5017889;28;20041;-70
2023/07/17 13:39:24;;;;;;;18.85;4.53;;;;;;;;;;5018714;28;20502;-70
2023/07/17 13:41:50;;;;;;;24.02;4.50;;;;;;;;;;5044733;28;20033;-74
2023/07/17 13:44:16;;;;;;;25.83;4.90;;;;;;;;;;5017835;28;20046;-69
2023/07/17 13:46:42;;;;;;;27.70;4.93;;;;;;;;;;5015212;28;20465;-71
2023/07/17 13:49:08;;;;;;;17.35;4.45;;;;;;;;;;5015992;28;20868;-69
2023/07/17 13:51:35;;;;;;;21.08;4.15;;;;;;;;;;5016873;28;20140;-69
2023/07/17 13:54:01;;;;;;;20.15;3.70;;;;;;;;;;5016289;28;20228;-74
2023/07/17 13:56:26;;;;;;;18.70;3.83;;;;;;;;;;5017599;28;20064;-69
2023/07/17 13:58:51;;;;;;;18.60;3.90;;;;;;;;;;5017946;28;20044;-71
2023/07/17 14:01:17;;;;;;;21.00;4.20;;;;;;;;;;5005693;28;20076;-69
2023/07/17 14:03:43;;;;;;;18.30;4.50;;;;;;;;;;5041571;28;20599;-72
2023/07/17 14:06:08;;;;;;;21.30;4.20;;;;;;;;;;5012609;28;20122;-73
2023/07/17 14:08:33;;;;;;;20.35;4.35;;;;;;;;;;5014840;28;20033;-71
2023/07/17 14:10:58;;;;;;;23.17;4.43;;;;;;;;;;5010839;28;20549;-71
2023/07/17 14:13:24;;;;;;;17.33;4.63;;;;;;;;;;5014750;28;20049;-70
2023/07/17 14:15:49;;;;;;;25.15;5.00;;;;;;;;;;5012658;28;20131;-70
2023/07/17 14:18:15;;;;;;;22.55;5.20;;;;;;;;;;5014262;28;20040;-71
2023/07/17 14:20:40;;;;;;;27.02;5.47;;;;;;;;;;5031508;28;20029;-70
2023/07/17 14:23:08;;;;;;;24.13;4.82;;;;;;;;;;5011741;28;20056;-72
2023/07/17 14:25:33;;;;;;;27.88;5.20;;;;;;;;;;5016618;28;20038;-71